createdAt,value
2022-10-08T00:01:29.025Z,95536.00
2022-10-08T00:03:57.781Z,95539.38
2022-10-08T00:06:28.118Z,95534.00
2022-10-08T00:08:58.546Z,95530.44
2022-10-08T00:11:29.683Z,95531.44
2022-10-08T00:13:58.654Z,95525.09
2022-10-08T00:16:29.536Z,95515.81
2022-10-08T00:19:01.070Z,95519.38
2022-10-08T00:21:31.485Z,95523.13
2022-10-08T00:24:01.422Z,95509.25
2022-10-08T00:26:32.727Z,95508.47
2022-10-08T00:29:03.061Z,95505.72
2022-10-08T00:31:33.113Z,95507.28
2022-10-08T00:34:03.716Z,95504.72
2022-10-08T00:36:33.107Z,95509.66
2022-10-08T00:39:03.019Z,95510.25
2022-10-08T00:41:34.385Z,95505.72
2022-10-08T00:44:04.304Z,95503.72
2022-10-08T00:46:36.659Z,95505.47
2022-10-08T00:49:11.942Z,95509.81
2022-10-08T00:51:44.109Z,95499.31
2022-10-08T00:54:13.381Z,95497.38
2022-10-08T00:56:43.263Z,95496.22
2022-10-08T00:59:13.694Z,95488.09
2022-10-08T01:01:43.463Z,95489.06
2022-10-08T01:04:12.959Z,95489.66
2022-10-08T01:06:50.493Z,95489.44
2022-10-08T01:09:24.351Z,95480.34
2022-10-08T01:12:00.246Z,95485.91
2022-10-08T01:14:40.330Z,95482.91
2022-10-08T01:17:17.855Z,95480.53
2022-10-08T01:20:18.382Z,95474.84
2022-10-08T01:23:12.114Z,95471.66
2022-10-08T01:25:54.030Z,95466.50
2022-10-08T01:28:29.663Z,95466.28
2022-10-08T01:31:02.863Z,95462.94
2022-10-08T01:33:34.725Z,95471.25
2022-10-08T01:36:06.282Z,95471.41
2022-10-08T01:38:41.055Z,95467.88
2022-10-08T01:41:11.471Z,95474.16
2022-10-08T01:43:45.018Z,95469.47
2022-10-08T01:46:19.279Z,95476.63
2022-10-08T01:48:50.200Z,95463.75
2022-10-08T01:51:23.364Z,95459.16
2022-10-08T01:53:53.213Z,95468.47
2022-10-08T01:56:25.794Z,95471.84
2022-10-08T01:59:00.044Z,95458.78
2022-10-08T02:01:34.029Z,95457.41
2022-10-08T02:04:19.672Z,95459.41
2022-10-08T02:06:53.159Z,95461.19
2022-10-08T02:09:23.345Z,95452.06
2022-10-08T02:11:51.127Z,95455.63
2022-10-08T02:14:22.068Z,95447.53
2022-10-08T02:16:55.991Z,95449.50
2022-10-08T02:19:34.521Z,95450.84
2022-10-08T02:22:04.749Z,95428.72
2022-10-08T02:24:38.746Z,95449.28
2022-10-08T02:27:09.778Z,95449.88
2022-10-08T02:29:42.735Z,95448.50
2022-10-08T02:32:16.184Z,95448.91
2022-10-08T02:34:50.343Z,95452.09
2022-10-08T02:37:22.835Z,95454.44
2022-10-08T02:39:55.904Z,95448.91
2022-10-08T02:42:25.525Z,95444.97
2022-10-08T02:45:00.769Z,95444.38
2022-10-08T02:47:32.686Z,95449.88
2022-10-08T02:50:04.740Z,95455.41
2022-10-08T02:52:36.097Z,95455.84
2022-10-08T02:55:08.691Z,95452.25
2022-10-08T02:57:43.288Z,95451.69
2022-10-08T03:00:14.181Z,95456.41
2022-10-08T03:02:48.012Z,95444.16
2022-10-08T03:05:19.639Z,95448.31
2022-10-08T03:07:51.524Z,95456.81
2022-10-08T03:10:19.887Z,95449.84
2022-10-08T03:12:48.757Z,95452.06
2022-10-08T03:15:18.201Z,95446.28
2022-10-08T03:17:48.264Z,95452.59
2022-10-08T03:20:16.128Z,95453.78
2022-10-08T03:22:44.734Z,95451.59
2022-10-08T03:25:12.681Z,95448.03
2022-10-08T03:27:40.451Z,95452.63
2022-10-08T03:30:09.386Z,95442.91
2022-10-08T03:32:38.513Z,95445.31
2022-10-08T03:35:06.631Z,95452.44
2022-10-08T03:37:34.481Z,95454.41
2022-10-08T03:40:02.297Z,95449.84
2022-10-08T03:42:30.062Z,95451.03
2022-10-08T03:44:57.792Z,95457.13
2022-10-08T03:47:25.687Z,95458.53
2022-10-08T03:49:54.965Z,95455.72
2022-10-08T03:52:22.751Z,95466.00
2022-10-08T03:54:50.473Z,95456.84
2022-10-08T03:57:18.216Z,95464.72
2022-10-08T03:59:45.951Z,95452.69
2022-10-08T04:02:13.706Z,95461.81
2022-10-08T04:04:41.498Z,95464.94
2022-10-08T04:07:10.678Z,95460.44
2022-10-08T04:09:38.431Z,95459.78
2022-10-08T04:12:06.305Z,95451.31
2022-10-08T04:14:34.121Z,95453.72
2022-10-08T04:17:01.844Z,95461.88
2022-10-08T04:19:29.561Z,95462.03
2022-10-08T04:21:57.289Z,95458.47
2022-10-08T04:24:26.414Z,95462.84
2022-10-08T04:26:54.295Z,95462.06
2022-10-08T04:29:22.067Z,95455.09
2022-10-08T04:31:49.847Z,95468.16
2022-10-08T04:34:18.372Z,95464.00
2022-10-08T04:36:46.139Z,95474.09
2022-10-08T04:39:13.863Z,95465.38
2022-10-08T04:41:42.973Z,95457.13
2022-10-08T04:44:10.764Z,95455.75
2022-10-08T04:46:38.665Z,95459.91
2022-10-08T04:49:06.539Z,95459.09
2022-10-08T04:51:34.293Z,95462.06
2022-10-08T04:54:02.807Z,95464.97
2022-10-08T04:56:34.691Z,95473.31
2022-10-08T04:59:04.922Z,95472.63
2022-10-08T05:01:32.730Z,95471.50
2022-10-08T05:04:00.860Z,95479.06
2022-10-08T05:06:30.512Z,95476.88
2022-10-08T05:09:02.461Z,95474.50
2022-10-08T05:11:30.964Z,95478.41
2022-10-08T05:13:59.821Z,95476.53
2022-10-08T05:16:29.230Z,95484.72
2022-10-08T05:18:57.481Z,95479.50
2022-10-08T05:21:26.895Z,95484.03
2022-10-08T05:23:55.643Z,95480.69
2022-10-08T05:26:53.119Z,95487.78
2022-10-08T05:29:13.709Z,95489.28
2022-10-08T05:31:42.895Z,95490.22
2022-10-08T05:34:10.890Z,95489.03
2022-10-08T05:36:38.736Z,95489.66
2022-10-08T05:39:07.329Z,95491.16
2022-10-08T05:41:38.471Z,95484.56
2022-10-08T05:44:07.447Z,95493.28
2022-10-08T05:46:37.385Z,95490.91
2022-10-08T05:49:09.220Z,95497.41
2022-10-08T05:51:38.464Z,95484.34
2022-10-08T05:54:06.394Z,95496.81
2022-10-08T05:56:34.318Z,95495.59
2022-10-08T05:59:02.063Z,95494.34
2022-10-08T06:01:32.174Z,95504.63
2022-10-08T06:04:05.674Z,95511.09
2022-10-08T06:06:38.630Z,95511.28
2022-10-08T06:09:08.058Z,95512.75
2022-10-08T06:11:38.026Z,95518.50
2022-10-08T06:14:07.146Z,95514.38
2022-10-08T06:16:35.880Z,95516.59
2022-10-08T06:19:06.643Z,95515.97
2022-10-08T06:21:35.852Z,95518.53
2022-10-08T06:24:07.545Z,95512.75
2022-10-08T06:26:38.622Z,95525.19
2022-10-08T06:29:07.296Z,95512.88
2022-10-08T06:31:35.378Z,95523.16
2022-10-08T06:34:04.862Z,95531.19
2022-10-08T06:36:34.596Z,95537.88
2022-10-08T06:39:04.529Z,95537.91
2022-10-08T06:41:35.005Z,95543.28
2022-10-08T06:44:03.995Z,95548.63
2022-10-08T06:46:32.720Z,95541.75
2022-10-08T06:49:01.744Z,95554.19
2022-10-08T06:51:30.473Z,95542.31
2022-10-08T06:54:06.636Z,95558.03
2022-10-08T06:56:37.858Z,95566.22
2022-10-08T06:59:06.199Z,95560.84
2022-10-08T07:01:35.017Z,95568.16
2022-10-08T07:04:06.921Z,95561.91
2022-10-08T07:06:35.188Z,95576.72
2022-10-08T07:09:03.415Z,95565.53
2022-10-08T07:11:32.381Z,95575.72
2022-10-08T07:14:01.903Z,95585.19
2022-10-08T07:16:33.005Z,95584.69
2022-10-08T07:19:01.364Z,95580.31
2022-10-08T07:21:30.250Z,95580.97
2022-10-08T07:24:00.146Z,95584.69
2022-10-08T07:26:30.671Z,95596.94
2022-10-08T07:29:02.425Z,95601.38
2022-10-08T07:31:33.401Z,95605.13
2022-10-08T07:34:02.985Z,95602.34
2022-10-08T07:36:31.241Z,95603.69
2022-10-08T07:39:03.830Z,95602.84
2022-10-08T07:41:32.197Z,95607.81
2022-10-08T07:44:03.035Z,95603.00
2022-10-08T07:46:32.226Z,95607.53
2022-10-08T07:49:01.485Z,95614.66
2022-10-08T07:51:31.311Z,95606.09
2022-10-08T07:54:03.743Z,95608.88
2022-10-08T07:56:32.591Z,95615.81
2022-10-08T07:59:03.049Z,95610.06
2022-10-08T08:01:33.363Z,95611.91
2022-10-08T08:04:03.271Z,95612.47
2022-10-08T08:06:32.997Z,95610.41
2022-10-08T08:09:02.111Z,95623.00
2022-10-08T08:11:30.997Z,95604.38
2022-10-08T08:13:58.979Z,95626.41
2022-10-08T08:16:30.231Z,95625.63
2022-10-08T08:19:01.140Z,95625.09
2022-10-08T08:21:30.709Z,95621.16
2022-10-08T08:24:03.401Z,95628.25
2022-10-08T08:26:34.031Z,95624.31
2022-10-08T08:29:04.113Z,95618.22
2022-10-08T08:31:34.932Z,95631.53
2022-10-08T08:34:05.602Z,95628.91
2022-10-08T08:36:35.771Z,95628.44
2022-10-08T08:39:05.355Z,95626.69
2022-10-08T08:41:45.822Z,95624.41
2022-10-08T08:44:19.761Z,95630.28
2022-10-08T08:46:54.868Z,95626.56
2022-10-08T08:49:29.378Z,95632.97
2022-10-08T08:51:59.249Z,95628.34
2022-10-08T08:54:27.336Z,95635.22
2022-10-08T08:56:55.817Z,95624.50
2022-10-08T08:59:29.385Z,95625.91
2022-10-08T09:02:02.189Z,95630.53
2022-10-08T09:04:45.046Z,95628.56
2022-10-08T09:07:16.218Z,95634.16
2022-10-08T09:09:48.976Z,95638.44
2022-10-08T09:12:21.105Z,95634.16
2022-10-08T09:14:53.959Z,95647.84
2022-10-08T09:17:31.591Z,95643.44
2022-10-08T09:20:00.534Z,95645.00
2022-10-08T09:22:30.478Z,95650.16
2022-10-08T09:25:00.834Z,95647.03
2022-10-08T09:27:45.311Z,95647.34
2022-10-08T09:30:32.785Z,95640.16
2022-10-08T09:33:17.486Z,95646.22
2022-10-08T09:35:50.443Z,95642.72
2022-10-08T09:38:22.537Z,95639.06
2022-10-08T09:41:05.694Z,95648.84
2022-10-08T09:43:34.675Z,95643.25
2022-10-08T09:46:11.571Z,95644.81
2022-10-08T09:48:43.237Z,95650.41
2022-10-08T09:51:16.296Z,95651.03
2022-10-08T09:53:46.238Z,95647.16
2022-10-08T09:56:15.916Z,95654.47
2022-10-08T09:58:53.884Z,95654.25
2022-10-08T10:01:22.450Z,95646.47
2022-10-08T10:03:55.120Z,95645.03
2022-10-08T10:06:28.108Z,95653.69
2022-10-08T10:09:01.453Z,95641.16
2022-10-08T10:11:36.485Z,95650.56
2022-10-08T10:14:12.168Z,95652.66
2022-10-08T10:16:43.846Z,95662.31
2022-10-08T10:19:18.218Z,95662.44
2022-10-08T10:21:54.911Z,95653.97
2022-10-08T10:24:41.011Z,95654.66
2022-10-08T10:27:13.211Z,95652.16
2022-10-08T10:29:51.042Z,95650.59
2022-10-08T10:32:23.806Z,95651.50
2022-10-08T10:35:04.641Z,95642.69
2022-10-08T10:37:41.550Z,95644.16
2022-10-08T10:40:24.949Z,95643.00
2022-10-08T10:42:59.465Z,95636.50
2022-10-08T10:45:32.169Z,95634.22
2022-10-08T10:48:01.092Z,95630.84
2022-10-08T10:50:40.471Z,95639.19
2022-10-08T10:53:17.347Z,95630.97
2022-10-08T10:55:54.794Z,95629.03
2022-10-08T10:58:45.265Z,95627.00
2022-10-08T11:01:28.264Z,95624.63
2022-10-08T11:04:04.360Z,95624.84
2022-10-08T11:06:49.576Z,95618.56
2022-10-08T11:09:28.384Z,95615.75
2022-10-08T11:12:02.706Z,95611.91
2022-10-08T11:14:42.600Z,95610.09
2022-10-08T11:17:27.377Z,95614.84
2022-10-08T11:20:04.451Z,95616.53
2022-10-08T11:22:41.564Z,95616.06
2022-10-08T11:25:22.046Z,95615.19
2022-10-08T11:28:04.092Z,95617.56
2022-10-08T11:30:41.711Z,95606.94
2022-10-08T11:33:14.019Z,95605.34
2022-10-08T11:35:51.101Z,95616.72
2022-10-08T11:38:26.928Z,95608.38
2022-10-08T11:40:57.610Z,95609.84
2022-10-08T11:43:31.013Z,95606.28
2022-10-08T11:46:22.982Z,95605.66
2022-10-08T11:48:51.603Z,95606.22
2022-10-08T11:51:31.778Z,95605.03
2022-10-08T11:54:12.431Z,95608.88
2022-10-08T11:56:43.026Z,95598.47
2022-10-08T11:59:29.840Z,95599.81
2022-10-08T12:01:59.445Z,95593.72
2022-10-08T12:04:34.758Z,95598.91
2022-10-08T12:07:18.436Z,95586.31
2022-10-08T12:10:33.978Z,95586.31
2022-10-08T12:13:27.686Z,95590.13
2022-10-08T12:16:04.787Z,95588.81
2022-10-08T12:18:43.812Z,95590.34
2022-10-08T12:21:48.391Z,95589.53
2022-10-08T12:24:52.649Z,95585.38
2022-10-08T12:27:41.839Z,95582.78
2022-10-08T12:30:13.881Z,95590.25
2022-10-08T12:32:56.740Z,95584.28
2022-10-08T12:35:28.618Z,95577.09
2022-10-08T12:38:24.043Z,95573.19
2022-10-08T12:41:03.531Z,95574.06
2022-10-08T12:43:39.862Z,95579.25
2022-10-08T12:46:18.727Z,95577.56
2022-10-08T12:48:55.022Z,95568.19
2022-10-08T12:51:30.553Z,95570.19
2022-10-08T12:53:59.675Z,95576.03
2022-10-08T12:56:30.390Z,95573.88
2022-10-08T12:59:00.621Z,95567.38
2022-10-08T13:01:30.385Z,95572.66
2022-10-08T13:04:18.177Z,95564.22
2022-10-08T13:06:46.425Z,95561.50
2022-10-08T13:09:25.219Z,95569.03
2022-10-08T13:11:57.141Z,95573.28
2022-10-08T13:14:27.817Z,95576.94
2022-10-08T13:16:57.962Z,95570.00
2022-10-08T13:19:31.474Z,95577.25
2022-10-08T13:22:01.370Z,95572.38
2022-10-08T13:24:40.807Z,95572.19
2022-10-08T13:27:24.312Z,95571.94
2022-10-08T13:29:52.367Z,95572.63
2022-10-08T13:32:24.179Z,95557.97
2022-10-08T13:34:54.716Z,95560.00
2022-10-08T13:37:29.038Z,95549.28
2022-10-08T13:39:58.888Z,95559.53
2022-10-08T13:42:30.141Z,95551.91
2022-10-08T13:44:59.752Z,95552.28
2022-10-08T13:47:29.583Z,95545.31
2022-10-08T13:50:01.816Z,95542.38
2022-10-08T13:52:32.404Z,95542.38
2022-10-08T13:55:03.325Z,95542.19
2022-10-08T13:57:31.298Z,95534.28
2022-10-08T13:59:59.392Z,95540.63
2022-10-08T14:02:28.737Z,95540.63
2022-10-08T14:04:56.597Z,95542.63
2022-10-08T14:07:28.830Z,95543.47
2022-10-08T14:09:58.680Z,95527.31
2022-10-08T14:12:30.173Z,95539.00
2022-10-08T14:14:58.201Z,95540.84
2022-10-08T14:17:26.288Z,95530.19
2022-10-08T14:19:55.513Z,95540.91
2022-10-08T14:22:23.759Z,95536.78
2022-10-08T14:24:51.845Z,95535.31
2022-10-08T14:27:19.666Z,95548.22
2022-10-08T14:29:47.661Z,95542.84
2022-10-08T14:32:15.534Z,95543.19
2022-10-08T14:34:43.423Z,95540.03
2022-10-08T14:37:12.940Z,95539.09
2022-10-08T14:39:40.780Z,95533.75
2022-10-08T14:42:08.756Z,95534.94
2022-10-08T14:44:36.630Z,95531.50
2022-10-08T14:47:04.578Z,95532.97
2022-10-08T14:49:32.667Z,95544.91
2022-10-08T14:52:00.603Z,95527.09
2022-10-08T14:54:29.822Z,95533.81
2022-10-08T14:56:57.811Z,95539.63
2022-10-08T14:59:26.007Z,95536.66
2022-10-08T15:01:54.020Z,95535.09
2022-10-08T15:04:22.098Z,95543.84
2022-10-08T15:06:50.126Z,95541.50
2022-10-08T15:09:18.153Z,95554.63
2022-10-08T15:11:47.437Z,95567.97
2022-10-08T15:14:15.654Z,95558.06
2022-10-08T15:16:43.962Z,95544.19
2022-10-08T15:19:12.338Z,95545.00
2022-10-08T15:21:40.296Z,95552.72
2022-10-08T15:24:08.467Z,95557.88
2022-10-08T15:26:36.492Z,95555.56
2022-10-08T15:29:05.948Z,95548.44
2022-10-08T15:31:34.239Z,95566.66
2022-10-08T15:34:02.305Z,95571.00
2022-10-08T15:36:32.517Z,95564.81
2022-10-08T15:39:01.979Z,95568.19
2022-10-08T15:41:31.864Z,95568.59
2022-10-08T15:44:10.811Z,95567.00
2022-10-08T15:46:38.990Z,95570.00
2022-10-08T15:49:06.970Z,95561.06
2022-10-08T15:51:35.098Z,95561.47
2022-10-08T15:54:03.409Z,95573.75
2022-10-08T15:56:31.848Z,95570.38
2022-10-08T15:59:00.911Z,95569.97
2022-10-08T16:01:31.132Z,95573.34
2022-10-08T16:04:00.065Z,95582.47
2022-10-08T16:06:30.170Z,95576.53
2022-10-08T16:08:58.763Z,95577.94
2022-10-08T16:11:28.774Z,95584.28
2022-10-08T16:14:00.420Z,95587.63
2022-10-08T16:16:28.874Z,95590.22
2022-10-08T16:18:59.387Z,95591.22
2022-10-08T16:21:29.294Z,95601.09
2022-10-08T16:23:58.541Z,95608.25
2022-10-08T16:26:28.867Z,95609.03
2022-10-08T16:28:59.566Z,95605.09
2022-10-08T16:31:29.690Z,95614.81
2022-10-08T16:34:00.492Z,95614.78
2022-10-08T16:36:29.811Z,95627.69
2022-10-08T16:38:58.649Z,95616.97
2022-10-08T16:41:28.203Z,95626.88
2022-10-08T16:43:58.075Z,95626.31
2022-10-08T16:46:28.410Z,95628.88
2022-10-08T16:49:00.488Z,95631.63
2022-10-08T16:51:30.792Z,95628.44
2022-10-08T16:54:00.877Z,95632.03
2022-10-08T16:56:30.755Z,95639.56
2022-10-08T16:59:00.836Z,95640.75
2022-10-08T17:01:29.294Z,95645.09
2022-10-08T17:03:59.015Z,95647.47
2022-10-08T17:06:28.002Z,95661.34
2022-10-08T17:08:56.139Z,95661.56
2022-10-08T17:11:23.981Z,95666.91
2022-10-08T17:13:54.004Z,95673.44
2022-10-08T17:16:24.027Z,95670.69
2022-10-08T17:18:53.057Z,95669.88
2022-10-08T17:21:23.415Z,95688.69
2022-10-08T17:23:52.033Z,95689.50
2022-10-08T17:26:21.970Z,95689.88
2022-10-08T17:28:52.844Z,95692.44
2022-10-08T17:31:24.280Z,95702.72
2022-10-08T17:33:52.691Z,95697.00
2022-10-08T17:36:23.748Z,95710.28
2022-10-08T17:38:53.713Z,95707.28
2022-10-08T17:41:23.091Z,95720.16
2022-10-08T17:43:51.694Z,95726.69
2022-10-08T17:46:21.101Z,95723.72
2022-10-08T17:48:49.284Z,95725.47
2022-10-08T17:51:18.744Z,95733.38
2022-10-08T17:53:53.137Z,95740.50
2022-10-08T17:56:21.843Z,95746.66
2022-10-08T17:58:50.157Z,95748.22
2022-10-08T18:01:19.712Z,95748.22
2022-10-08T18:03:52.083Z,95757.34
2022-10-08T18:06:20.182Z,95766.84
2022-10-08T18:08:49.403Z,95769.41
2022-10-08T18:11:18.027Z,95770.00
2022-10-08T18:13:45.832Z,95770.78
2022-10-08T18:16:16.011Z,95774.72
2022-10-08T18:18:45.177Z,95775.53
2022-10-08T18:21:15.087Z,95785.44
2022-10-08T18:23:45.976Z,95782.25
2022-10-08T18:26:19.021Z,95791.56
2022-10-08T18:28:47.885Z,95791.75
2022-10-08T18:31:17.276Z,95792.97
2022-10-08T18:33:47.123Z,95788.66
2022-10-08T18:36:17.179Z,95787.84
2022-10-08T18:38:46.726Z,95791.25
2022-10-08T18:41:18.053Z,95788.66
2022-10-08T18:43:47.708Z,95796.19
2022-10-08T18:46:17.002Z,95797.56
2022-10-08T18:48:44.918Z,95796.72
2022-10-08T18:51:16.707Z,95805.84
2022-10-08T18:53:45.636Z,95805.84
2022-10-08T18:56:15.986Z,95795.34
2022-10-08T18:58:45.515Z,95798.13
2022-10-08T19:01:19.552Z,95802.47
2022-10-08T19:03:48.916Z,95811.78
2022-10-08T19:06:18.010Z,95815.72
2022-10-08T19:08:46.960Z,95822.22
2022-10-08T19:11:16.553Z,95822.84
2022-10-08T19:13:50.371Z,95822.44
2022-10-08T19:16:18.536Z,95815.50
2022-10-08T19:18:53.665Z,95836.91
2022-10-08T19:21:24.992Z,95838.50
2022-10-08T19:23:53.770Z,95836.50
2022-10-08T19:26:22.988Z,95827.13
2022-10-08T19:28:55.423Z,95846.38
2022-10-08T19:31:25.903Z,95852.72
2022-10-08T19:33:55.548Z,95848.53
2022-10-08T19:36:25.237Z,95846.50
2022-10-08T19:38:54.359Z,95864.47
2022-10-08T19:41:24.819Z,95871.19
2022-10-08T19:43:55.341Z,95871.34
2022-10-08T19:46:23.929Z,95868.59
2022-10-08T19:48:52.730Z,95875.84
2022-10-08T19:51:21.188Z,95880.16
2022-10-08T19:53:50.050Z,95877.38
2022-10-08T19:56:18.840Z,95884.88
2022-10-08T19:58:49.017Z,95887.44
2022-10-08T20:01:20.449Z,95887.66
2022-10-08T20:03:48.737Z,95884.25
2022-10-08T20:06:23.238Z,95890.31
2022-10-08T20:08:54.557Z,95896.63
2022-10-08T20:11:22.531Z,95895.81
2022-10-08T20:13:52.228Z,95893.06
2022-10-08T20:16:23.597Z,95898.59
2022-10-08T20:18:54.035Z,95874.13
2022-10-08T20:21:23.384Z,95904.34
2022-10-08T20:23:51.289Z,95907.53
2022-10-08T20:26:21.622Z,95909.06
2022-10-08T20:28:51.360Z,95906.63
2022-10-08T20:31:23.000Z,95918.63
2022-10-08T20:33:57.648Z,95919.97
2022-10-08T20:36:26.294Z,95927.34
2022-10-08T20:38:54.484Z,95935.97
2022-10-08T20:41:28.075Z,95935.34
2022-10-08T20:44:03.862Z,95926.09
2022-10-08T20:46:37.351Z,95929.91
2022-10-08T20:49:06.006Z,95918.94
2022-10-08T20:51:34.693Z,95939.63
2022-10-08T20:54:05.439Z,95944.72
2022-10-08T20:56:39.315Z,95937.19
2022-10-08T20:59:08.727Z,95939.03
2022-10-08T21:01:39.576Z,95936.94
2022-10-08T21:04:08.778Z,95931.09
2022-10-08T21:06:39.301Z,95935.38
2022-10-08T21:09:08.357Z,95938.06
2022-10-08T21:11:37.899Z,95938.00
2022-10-08T21:14:07.678Z,95945.88
2022-10-08T21:16:39.700Z,95962.44
2022-10-08T21:19:11.052Z,95986.44
2022-10-08T21:21:39.441Z,95991.75
2022-10-08T21:24:08.083Z,95972.28
2022-10-08T21:26:37.912Z,95977.50
2022-10-08T21:29:08.057Z,95967.56
2022-10-08T21:31:39.296Z,95975.00
2022-10-08T21:34:07.739Z,95970.06
2022-10-08T21:36:37.439Z,95973.31
2022-10-08T21:39:07.939Z,95967.78
2022-10-08T21:41:37.516Z,95969.03
2022-10-08T21:44:07.676Z,95966.47
2022-10-08T21:46:39.421Z,95962.53
2022-10-08T21:49:09.524Z,95950.63
2022-10-08T21:51:37.952Z,95962.72
2022-10-08T21:54:08.933Z,95968.13
2022-10-08T21:56:39.608Z,95964.84
2022-10-08T21:59:09.611Z,95970.16
2022-10-08T22:01:41.471Z,95967.88
2022-10-08T22:04:12.439Z,95966.19
2022-10-08T22:06:42.373Z,95955.38
2022-10-08T22:09:13.073Z,95970.50
2022-10-08T22:11:41.307Z,95963.50
2022-10-08T22:14:09.748Z,95968.66
2022-10-08T22:16:39.774Z,95974.50
2022-10-08T22:19:08.136Z,95969.53
2022-10-08T22:21:36.727Z,95960.16
2022-10-08T22:24:05.166Z,95963.53
2022-10-08T22:26:35.373Z,95958.31
2022-10-08T22:29:03.551Z,95959.81
2022-10-08T22:31:31.449Z,95970.06
2022-10-08T22:34:00.973Z,95960.00
2022-10-08T22:36:30.806Z,95954.75
2022-10-08T22:38:59.987Z,95955.91
2022-10-08T22:41:29.946Z,95959.38
2022-10-08T22:43:58.146Z,95951.56
2022-10-08T22:46:27.981Z,95953.22
2022-10-08T22:48:58.471Z,95949.06
2022-10-08T22:51:28.535Z,95951.63
2022-10-08T22:53:56.766Z,95949.84
2022-10-08T22:56:26.342Z,95945.59
2022-10-08T22:58:54.120Z,95930.69
2022-10-08T23:01:23.522Z,95932.94
2022-10-08T23:03:52.091Z,95932.75
2022-10-08T23:06:22.282Z,95948.78
2022-10-08T23:08:54.657Z,95939.25
2022-10-08T23:11:22.645Z,95943.69
2022-10-08T23:13:51.396Z,95938.75
2022-10-08T23:16:19.253Z,95945.97
2022-10-08T23:18:52.779Z,95939.09
2022-10-08T23:21:20.487Z,95944.28
2022-10-08T23:23:49.397Z,95935.81
2022-10-08T23:26:19.245Z,95942.56
2022-10-08T23:28:51.019Z,95931.97
2022-10-08T23:31:20.789Z,95929.88
2022-10-08T23:33:50.479Z,95929.69
2022-10-08T23:36:20.136Z,95932.31
2022-10-08T23:38:48.263Z,95929.22
2022-10-08T23:41:16.089Z,95932.13
2022-10-08T23:43:47.123Z,95938.16
2022-10-08T23:46:18.014Z,95937.91
2022-10-08T23:48:46.397Z,95930.47
2022-10-08T23:51:15.392Z,95942.28
2022-10-08T23:53:44.535Z,95954.16
2022-10-08T23:56:13.882Z,95957.31
2022-10-08T23:58:42.063Z,95963.13
